»·PEaware :: SWA572 KLAX-KRNO

SWA572 :: KLAX-KRNO

FLIGHT INFORMATION

Flight Status: Arrived
Operator:
Southwest Airlines
More flights by this operator :: More flights under this callsign
Pilot: Anonymous 8799 (8799)
Aircraft: BOEING 737-800
(B738)
More flights by this aircraft type
Origin: KLAX Los Angeles Intl
United States
Destination: KRNO Reno/Tahoe Intl
United States
More flights between these airports :: More routes between these airports
Route: +LADYJ4 CSTRO FMG
File this flight plan on PilotEdge
Remarks:
Altitude:
(Current/Filed)
32,000ft
Speed:
(Current/Filed)
450kts
Departed: 11-Feb-19 09:45 AM
Arrived: 11-Feb-19 10:50 AM
Distance/Time
Traveled:
340nm/1:05
Distance/Time
To Go:
Arrived

Flight Plot

Page will automatically refresh every two minutes.

Flight plan parsing failed; only flown route is shown


Map Options




Map Legend


Flown Route
Filed Route
Departure Airport
Arrival Airport
Navaid (VOR, NDB)
Fix

Horizontal Profiles

Position Reports

Time Latitude Longitude Heading Altitude Ground
Speed
11-Feb-19 09:17 33.946363 -118.403295 263 135ft 0kts
11-Feb-19 09:18 33.946363 -118.403295 263 135ft 0kts
11-Feb-19 09:19 33.946363 -118.403295 263 135ft 0kts
11-Feb-19 09:20 33.946363 -118.403295 263 135ft 0kts
11-Feb-19 09:21 33.946363 -118.403295 263 135ft 0kts
11-Feb-19 09:22 33.946363 -118.403295 263 135ft 0kts
11-Feb-19 09:23 33.946363 -118.403295 263 135ft 0kts
11-Feb-19 09:24 33.946363 -118.403295 263 135ft 0kts
11-Feb-19 09:25 33.946363 -118.403295 263 135ft 0kts
11-Feb-19 09:26 33.946363 -118.403295 263 135ft 0kts
11-Feb-19 09:27 33.946363 -118.403295 262 135ft 0kts
11-Feb-19 09:28 33.946363 -118.403295 263 135ft 0kts
11-Feb-19 09:29 33.946365 -118.403278 263 135ft 1kts
11-Feb-19 09:30 33.946214 -118.402633 335 135ft 2kts
11-Feb-19 09:31 33.946112 -118.402594 344 135ft 0kts
11-Feb-19 09:32 33.946112 -118.402594 344 135ft 0kts
11-Feb-19 09:33 33.946127 -118.402597 349 135ft 0kts
11-Feb-19 09:34 33.946977 -118.402520 354 135ft 1kts
11-Feb-19 09:35 33.947417 -118.402581 353 135ft 1kts
11-Feb-19 09:36 33.947469 -118.402588 353 135ft 0kts
11-Feb-19 09:37 33.947469 -118.402588 353 135ft 0kts
11-Feb-19 09:38 33.947690 -118.402616 355 135ft 5kts
11-Feb-19 09:39 33.948420 -118.401310 82 135ft 5kts
11-Feb-19 09:40 33.949383 -118.399544 57 135ft 3kts
11-Feb-19 09:41 33.949458 -118.399431 48 135ft 0kts
11-Feb-19 09:42 33.949458 -118.399431 48 135ft 0kts
11-Feb-19 09:43 33.950382 -118.399823 264 135ft 14kts
11-Feb-19 09:44 33.944567 -118.447812 264 1984ft 222kts
11-Feb-19 09:45 33.940541 -118.534617 265 4959ft 281kts
11-Feb-19 09:46 33.946186 -118.623865 299 7822ft 273kts
11-Feb-19 09:47 34.002607 -118.675834 352 8008ft 267kts
11-Feb-19 09:48 34.077966 -118.672563 359 12301ft 279kts
11-Feb-19 09:49 34.155424 -118.653598 5 16363ft 295kts
11-Feb-19 09:50 34.237507 -118.634814 357 19978ft 307kts
11-Feb-19 09:51 34.322008 -118.649661 343 23144ft 317kts
11-Feb-19 09:52 34.410297 -118.669948 342 25898ft 329kts
11-Feb-19 09:53 34.500999 -118.688487 342 28921ft 330kts
11-Feb-19 09:54 34.590340 -118.705843 340 31736ft 322kts
11-Feb-19 09:55 34.683149 -118.724381 340 32247ft 364kts
11-Feb-19 09:56 34.779515 -118.771125 322 32229ft 389kts
11-Feb-19 09:57 34.873469 -118.836236 323 32212ft 388kts
11-Feb-19 09:58 34.967272 -118.900999 323 32224ft 388kts
11-Feb-19 09:59 35.061313 -118.966032 323 32240ft 389kts
11-Feb-19 10:00 35.155306 -119.031162 323 32262ft 389kts
11-Feb-19 10:01 35.249497 -119.096570 323 32264ft 388kts
11-Feb-19 10:02 35.343952 -119.162320 324 32264ft 389kts
11-Feb-19 10:03 35.439423 -119.225453 333 32292ft 397kts
11-Feb-19 10:04 35.551456 -119.245354 346 32324ft 412kts
11-Feb-19 10:05 35.665632 -119.256514 346 32324ft 412kts
11-Feb-19 10:06 35.779492 -119.267673 346 32323ft 412kts
11-Feb-19 10:07 35.893687 -119.278894 346 32320ft 412kts
11-Feb-19 10:08 36.008011 -119.290162 346 32312ft 412kts
11-Feb-19 10:09 36.118978 -119.301138 347 32317ft 413kts
11-Feb-19 10:10 36.233976 -119.312540 347 32317ft 414kts
11-Feb-19 10:11 36.348105 -119.323877 347 32316ft 413kts
11-Feb-19 10:12 36.462407 -119.335275 347 32315ft 412kts
11-Feb-19 10:13 36.576821 -119.346719 347 32314ft 413kts
11-Feb-19 10:14 36.691249 -119.358201 347 32313ft 413kts
11-Feb-19 10:15 36.806013 -119.369747 347 32312ft 413kts
11-Feb-19 10:16 36.920499 -119.381303 347 32312ft 414kts
11-Feb-19 10:17 37.035198 -119.392916 347 32311ft 414kts
11-Feb-19 10:18 37.148766 -119.404456 347 32309ft 415kts
11-Feb-19 10:19 37.263924 -119.416193 347 32252ft 415kts
11-Feb-19 10:20 37.378638 -119.427922 347 32233ft 415kts
11-Feb-19 10:21 37.494129 -119.439779 347 32232ft 415kts
11-Feb-19 10:22 37.609200 -119.451628 347 32231ft 415kts
11-Feb-19 10:23 37.724722 -119.463569 348 32230ft 416kts
11-Feb-19 10:24 37.839670 -119.475488 348 32207ft 416kts
11-Feb-19 10:25 37.955402 -119.487547 347 32001ft 419kts
11-Feb-19 10:26 38.071522 -119.499665 348 30937ft 420kts
11-Feb-19 10:27 38.185068 -119.511566 348 29929ft 421kts
11-Feb-19 10:28 38.301261 -119.523745 349 28893ft 414kts
11-Feb-19 10:29 38.415032 -119.535717 349 27861ft 407kts
11-Feb-19 10:30 38.527997 -119.547709 350 26823ft 406kts
11-Feb-19 10:31 38.639462 -119.559527 350 25747ft 400kts
11-Feb-19 10:32 38.744394 -119.570568 351 23979ft 360kts
11-Feb-19 10:33 38.843049 -119.581129 351 22245ft 352kts
11-Feb-19 10:34 38.939450 -119.591472 351 20503ft 343kts
11-Feb-19 10:35 39.033525 -119.601589 351 18761ft 336kts
11-Feb-19 10:36 39.123220 -119.611263 351 17066ft 328kts
11-Feb-19 10:37 39.213360 -119.620999 351 15249ft 320kts
11-Feb-19 10:38 39.299563 -119.630282 351 13320ft 295kts
11-Feb-19 10:39 39.379253 -119.636859 352 11396ft 285kts
11-Feb-19 10:40 39.458208 -119.645582 352 10003ft 285kts
11-Feb-19 10:41 39.537112 -119.656150 352 9251ft 287kts
11-Feb-19 10:42 39.616849 -119.668609 352 7652ft 289kts
11-Feb-19 10:43 39.685832 -119.695823 306 7391ft 235kts
11-Feb-19 10:44 39.676448 -119.761061 225 7372ft 195kts
11-Feb-19 10:45 39.625995 -119.769445 176 6782ft 176kts
11-Feb-19 10:46 39.579253 -119.769062 179 5846ft 158kts
11-Feb-19 10:47 39.536809 -119.769150 179 4991ft 145kts
11-Feb-19 10:48 39.496163 -119.769257 180 4423ft 115kts
11-Feb-19 10:49 39.489291 -119.770459 277 4423ft 0kts
11-Feb-19 10:50 39.489291 -119.770470 273 4423ft 0kts
11-Feb-19 10:51 39.490912 -119.771530 0 4423ft 18kts
11-Feb-19 10:52 39.495589 -119.771549 359 4423ft 14kts
11-Feb-19 10:53 39.499712 -119.771507 0 4423ft 13kts
11-Feb-19 10:54 39.503204 -119.771531 356 4423ft 11kts
11-Feb-19 10:56 39.504375 -119.772776 354 4423ft 0kts
11-Feb-19 10:57 39.504446 -119.772782 356 4423ft 0kts

Navigation Log

Ident Type
Flight plan parsing failed, navigation log unavailable